Mackay, Texas
Current Conditions -  °F | °C
As of 5:35 PM on Monday 20 Oct 2014 (Local Time) from KARM Reporting Station
Clear Clear  
Wind Chill: 79°   Ceiling: Unl
Heat Index: 80°   Visibility: 10mi
Dew Point: 60°   Wind: 6mph
Humidity: 52%   Direction: 40°NE
Pressure: 29.98"   Gusts: NA
Location:  29.2926°N, 96.034°W
Report Text: KARM 202235Z AUTO 04005KT 10SM CLR 26/15 A2998 RMK AO2 T02600153
Loading
Personal Weather Stations






























Interactive Weather Map
Tropical Storm Tracking
New forecast layout! Learn more

10-Day Weather Forecast

Advertisements
Track Severe Weather on mobile